Time;durP1;ratioP1;P1;durP2;ratioP2;P2;SDS_P1;SDS_P2;PMS_P1;PMS_P2;Temp;Humidity;BMP_temperature;BMP_pressure;BME280_temperature;BME280_humidity;BME280_pressure;Samples;Min_cycle;Max_cycle;Signal;HPM_P1;HPM_P2
2022/07/09 00:00:59;;;;;;;5.00;2.42;;;14.90;99.90;;;;;;5041624;28;20045;-64
2022/07/09 00:03:25;;;;;;;7.20;2.33;;;14.90;99.90;;;;;;5041716;28;20047;-64
2022/07/09 00:05:50;;;;;;;;;;;14.90;99.90;;;;;;5043282;28;20045;-64
2022/07/09 00:08:16;;;;;;;7.38;2.80;;;14.90;99.90;;;;;;5049413;28;19924;-64
2022/07/09 00:10:41;;;;;;;;;;;14.90;99.90;;;;;;5042388;28;20049;-64
2022/07/09 00:13:07;;;;;;;14.75;3.95;;;14.90;99.90;;;;;;5041533;28;20293;-64
2022/07/09 00:15:32;;;;;;;;;;;14.90;99.90;;;;;;5042297;28;20068;-64
2022/07/09 00:17:59;;;;;;;8.70;2.58;;;14.90;99.90;;;;;;5033516;28;20008;-63
2022/07/09 00:20:24;;;;;;;6.07;2.53;;;14.90;99.90;;;;;;5028552;28;20052;-64
2022/07/09 00:22:50;;;;;;;;;;;15.00;99.90;;;;;;5029064;28;20041;-64
2022/07/09 00:25:16;;;;;;;5.00;2.60;;;15.00;99.90;;;;;;5028643;28;19921;-64
2022/07/09 00:27:41;;;;;;;;;;;15.00;99.90;;;;;;5028455;28;20037;-64
2022/07/09 00:30:07;;;;;;;6.85;2.58;;;15.00;99.90;;;;;;5028169;28;19917;-64
2022/07/09 00:32:33;;;;;;;;;;;15.00;99.90;;;;;;5028350;28;20034;-64
2022/07/09 00:34:58;;;;;;;7.70;2.30;;;15.00;99.90;;;;;;5030274;28;19978;-64
2022/07/09 00:37:24;;;;;;;13.35;3.30;;;15.00;99.90;;;;;;5040476;28;20132;-63
2022/07/09 00:39:49;;;;;;;;;;;15.10;99.90;;;;;;5029358;28;20041;-64
2022/07/09 00:42:15;;;;;;;7.25;2.70;;;15.10;99.90;;;;;;5028101;28;19963;-64
2022/07/09 00:44:40;;;;;;;;;;;15.10;99.90;;;;;;5029005;28;20041;-64
2022/07/09 00:47:07;;;;;;;5.32;2.78;;;15.10;99.90;;;;;;5028397;28;19960;-64
2022/07/09 00:49:38;;;;;;;8.07;3.20;;;15.10;99.90;;;;;;5027762;28;20046;-63
2022/07/09 00:52:05;;;;;;;6.55;3.28;;;15.20;99.90;;;;;;5026655;28;20076;-63
2022/07/09 00:54:31;;;;;;;12.38;4.40;;;15.20;99.90;;;;;;5027924;28;20050;-64
2022/07/09 00:56:57;;;;;;;;;;;15.20;99.90;;;;;;5028086;28;20053;-64
2022/07/09 00:59:23;;;;;;;7.40;3.78;;;15.30;99.90;;;;;;5028098;28;19924;-64
2022/07/09 01:01:50;;;;;;;;;;;15.20;99.90;;;;;;5027812;28;20038;-63
2022/07/09 01:04:15;;;;;;;7.32;3.30;;;15.20;99.90;;;;;;5028431;28;19920;-64
2022/07/09 01:06:41;;;;;;;;;;;15.30;99.90;;;;;;5036054;28;20045;-63
2022/07/09 01:09:07;;;;;;;12.50;3.25;;;15.30;99.90;;;;;;5027985;28;20024;-64
2022/07/09 01:11:32;;;;;;;;;;;15.40;99.90;;;;;;5025754;28;20060;-64
2022/07/09 01:13:58;;;;;;;6.45;3.20;;;15.30;99.90;;;;;;5027301;28;20008;-64
2022/07/09 01:16:30;;;;;;;;;;;15.40;99.90;;;;;;5027900;28;20768;-64
2022/07/09 01:18:56;;;;;;;6.75;2.53;;;15.40;99.90;;;;;;5027238;28;19928;-63
2022/07/09 01:21:21;;;;;;;;;;;15.30;99.90;;;;;;5027946;28;20030;-64
2022/07/09 01:23:47;;;;;;;7.95;3.15;;;15.30;99.90;;;;;;5020945;28;19922;-63
2022/07/09 01:26:12;;;;;;;;;;;15.30;99.90;;;;;;5008156;28;20037;-64
2022/07/09 01:28:38;;;;;;;10.02;3.20;;;15.30;99.90;;;;;;5026261;28;19917;-63
2022/07/09 01:31:03;;;;;;;;;;;15.30;99.90;;;;;;5026537;28;20747;-64
2022/07/09 01:33:30;;;;;;;6.72;4.20;;;15.20;99.90;;;;;;5027626;28;19917;-64
2022/07/09 01:35:55;;;;;;;13.45;4.65;;;15.30;99.90;;;;;;5036111;28;20049;-63
2022/07/09 01:38:21;;;;;;;;;;;15.30;99.90;;;;;;5027022;28;20542;-64
2022/07/09 01:40:47;;;;;;;11.90;4.00;;;15.30;99.90;;;;;;5026161;28;19943;-63
2022/07/09 01:43:13;;;;;;;;;;;15.30;99.90;;;;;;5027481;28;20436;-63
2022/07/09 01:45:38;;;;;;;11.70;7.40;;;15.30;99.90;;;;;;5027153;28;19928;-64
2022/07/09 01:48:04;;;;;;;;;;;15.30;99.90;;;;;;5025653;28;20041;-65
2022/07/09 01:50:29;;;;;;;9.65;5.07;;;15.30;99.90;;;;;;5027717;28;19923;-64
2022/07/09 01:52:55;;;;;;;7.88;5.20;;;15.30;99.90;;;;;;5025096;28;20037;-64
2022/07/09 01:55:20;;;;;;;9.15;5.68;;;15.20;99.90;;;;;;5026498;28;20159;-64
2022/07/09 01:57:46;;;;;;;;;;;15.20;99.90;;;;;;5027295;28;20097;-64
2022/07/09 02:00:12;;;;;;;10.77;5.90;;;15.30;99.90;;;;;;5026775;28;20012;-63
2022/07/09 02:02:37;;;;;;;10.40;6.53;;;15.20;99.90;;;;;;5026759;28;20053;-64
2022/07/09 02:05:03;;;;;;;16.05;7.90;;;15.20;99.90;;;;;;5028677;28;20103;-64
2022/07/09 02:07:29;;;;;;;;;;;15.10;99.90;;;;;;5034025;28;20045;-63
2022/07/09 02:09:54;;;;;;;17.42;7.60;;;15.20;99.90;;;;;;5026541;28;20144;-64
2022/07/09 02:12:20;;;;;;;;;;;15.20;99.90;;;;;;5026284;28;20042;-64
2022/07/09 02:14:45;;;;;;;14.15;7.00;;;15.20;99.90;;;;;;5026493;28;20012;-63
2022/07/09 02:17:11;;;;;;;15.32;6.68;;;15.20;99.90;;;;;;5026256;28;20045;-64
2022/07/09 02:19:37;;;;;;;;;;;15.20;99.90;;;;;;5027214;28;20060;-64
2022/07/09 02:22:02;;;;;;;15.88;6.68;;;15.20;99.90;;;;;;5011428;28;19922;-64
2022/07/09 02:24:28;;;;;;;;;;;15.20;99.90;;;;;;5013361;28;20129;-64
2022/07/09 02:26:54;;;;;;;11.30;6.43;;;15.20;99.90;;;;;;5006384;28;20456;-64
2022/07/09 02:29:20;;;;;;;14.77;6.55;;;15.20;99.90;;;;;;5021908;28;20033;-64
2022/07/09 02:31:45;;;;;;;;;;;15.20;99.90;;;;;;5026851;28;20063;-64
2022/07/09 02:34:11;;;;;;;12.50;6.22;;;15.20;99.90;;;;;;5026437;28;19928;-64
2022/07/09 02:36:36;;;;;;;;;;;15.20;99.90;;;;;;5034492;28;20508;-64
2022/07/09 02:39:02;;;;;;;10.27;5.75;;;15.20;99.90;;;;;;5030762;28;20367;-65
2022/07/09 02:41:27;;;;;;;;;;;15.20;99.90;;;;;;5025463;28;20049;-64
2022/07/09 02:43:53;;;;;;;15.63;6.82;;;15.20;99.90;;;;;;5026373;28;19997;-63
2022/07/09 02:46:18;;;;;;;;;;;15.20;99.90;;;;;;5026868;28;20128;-64
2022/07/09 02:48:44;;;;;;;13.23;6.57;;;15.20;99.90;;;;;;5026656;28;20300;-64
2022/07/09 02:51:10;;;;;;;;;;;15.20;99.90;;;;;;5027299;28;20122;-64
2022/07/09 02:53:35;;;;;;;13.32;5.78;;;15.10;99.90;;;;;;5025953;28;20327;-63
2022/07/09 02:56:01;;;;;;;;;;;15.10;99.90;;;;;;5027873;28;20049;-64
2022/07/09 02:58:26;;;;;;;13.75;7.00;;;15.10;99.90;;;;;;5025244;28;19955;-64
2022/07/09 03:00:52;;;;;;;;;;;15.10;99.90;;;;;;5026710;28;20100;-64
2022/07/09 03:03:18;;;;;;;12.88;6.97;;;15.00;99.90;;;;;;5026014;28;19931;-63
2022/07/09 03:05:43;;;;;;;;;;;15.00;99.90;;;;;;5034113;28;20524;-64
2022/07/09 03:08:08;;;;;;;10.77;6.53;;;15.00;99.90;;;;;;5036327;28;19923;-65
2022/07/09 03:10:34;;;;;;;;;;;15.00;99.90;;;;;;5026675;28;20389;-63
2022/07/09 03:13:01;;;;;;;13.35;7.03;;;15.00;99.90;;;;;;5026147;28;20023;-64
2022/07/09 03:15:26;;;;;;;13.10;6.20;;;15.00;99.90;;;;;;5025343;28;20152;-64
2022/07/09 03:17:52;;;;;;;;;;;15.00;99.90;;;;;;5026318;28;20128;-64
2022/07/09 03:20:17;;;;;;;12.75;5.72;;;15.00;99.90;;;;;;5025841;28;19913;-64
2022/07/09 03:22:43;;;;;;;;;;;15.00;99.90;;;;;;5026010;28;20488;-64
2022/07/09 03:25:09;;;;;;;15.68;6.03;;;15.00;99.90;;;;;;5025975;28;20736;-64
2022/07/09 03:27:35;;;;;;;;;;;15.00;99.90;;;;;;5025963;28;20120;-64
2022/07/09 03:30:01;;;;;;;11.23;6.00;;;15.00;99.90;;;;;;5025466;28;20372;-64
2022/07/09 03:32:27;;;;;;;11.27;5.50;;;15.00;99.90;;;;;;5025730;28;20064;-63
2022/07/09 03:34:53;;;;;;;13.20;6.15;;;15.00;99.90;;;;;;5025464;28;20037;-64
2022/07/09 03:37:19;;;;;;;;;;;15.00;99.90;;;;;;5026475;28;20192;-64
2022/07/09 03:39:44;;;;;;;13.27;7.05;;;15.00;99.90;;;;;;5035597;28;19956;-63
2022/07/09 03:42:10;;;;;;;;;;;15.10;99.90;;;;;;5026444;28;20559;-64
2022/07/09 03:44:36;;;;;;;14.70;5.85;;;15.00;99.90;;;;;;5025470;28;20372;-64
2022/07/09 03:47:02;;;;;;;;;;;15.10;99.90;;;;;;5026105;28;20033;-64
2022/07/09 03:49:27;;;;;;;15.88;7.63;;;15.00;99.90;;;;;;5025399;28;19917;-64
2022/07/09 03:51:53;;;;;;;;;;;15.00;99.90;;;;;;5025927;28;20048;-64
2022/07/09 03:54:18;;;;;;;16.33;7.60;;;15.00;99.90;;;;;;5040547;28;19917;-64
2022/07/09 03:56:44;;;;;;;;;;;15.00;99.90;;;;;;5037117;28;20515;-64
2022/07/09 03:59:10;;;;;;;15.00;7.75;;;15.00;99.90;;;;;;5046954;28;20579;-65
2022/07/09 04:01:35;;;;;;;;;;;15.10;99.90;;;;;;5029561;28;20042;-63
2022/07/09 04:04:01;;;;;;;19.15;10.02;;;15.10;99.90;;;;;;5037207;28;20299;-64
2022/07/09 04:06:26;;;;;;;;;;;15.10;99.90;;;;;;5028088;28;20130;-63
2022/07/09 04:08:52;;;;;;;15.38;8.40;;;15.10;99.90;;;;;;5028552;28;19921;-65
2022/07/09 04:11:18;;;;;;;16.60;9.95;;;15.10;99.90;;;;;;5028942;28;20558;-64
2022/07/09 04:13:43;;;;;;;;;;;15.20;99.90;;;;;;5029687;28;20741;-64
2022/07/09 04:16:09;;;;;;;20.08;9.32;;;15.20;99.90;;;;;;5027845;28;19917;-64
2022/07/09 04:18:35;;;;;;;;;;;15.20;99.90;;;;;;5029571;28;20072;-63
2022/07/09 04:21:00;;;;;;;12.00;8.95;;;15.20;99.90;;;;;;5028616;28;20377;-64
2022/07/09 04:23:26;;;;;;;;;;;15.30;99.90;;;;;;5029191;28;20556;-64
2022/07/09 04:25:52;;;;;;;16.58;9.68;;;15.20;99.90;;;;;;5040237;28;20265;-64
2022/07/09 04:28:18;;;;;;;15.27;11.10;;;15.30;99.90;;;;;;5027874;28;20940;-64
2022/07/09 04:30:44;;;;;;;;;;;15.30;99.90;;;;;;5028890;28;20091;-64
2022/07/09 04:33:10;;;;;;;20.33;10.10;;;15.30;99.90;;;;;;5029345;28;19916;-64
2022/07/09 04:35:35;;;;;;;;;;;15.30;99.90;;;;;;5028766;28;20044;-64
2022/07/09 04:38:01;;;;;;;21.48;11.43;;;15.30;99.90;;;;;;5028049;28;19920;-63
2022/07/09 04:40:27;;;;;;;23.15;13.52;;;15.30;99.90;;;;;;5027163;28;20064;-63
2022/07/09 04:42:53;;;;;;;;;;;15.40;99.90;;;;;;5020981;28;20080;-63
2022/07/09 04:45:18;;;;;;;28.83;16.48;;;15.40;99.90;;;;;;5028225;28;19931;-63
2022/07/09 04:47:44;;;;;;;28.75;16.63;;;15.30;99.90;;;;;;5028639;28;20629;-64
2022/07/09 04:50:10;;;;;;;;;;;15.30;99.90;;;;;;5021267;28;20468;-63
2022/07/09 04:52:37;;;;;;;24.48;16.65;;;15.30;99.90;;;;;;5027978;28;20372;-63
2022/07/09 04:55:02;;;;;;;;;;;15.30;99.90;;;;;;5028592;28;20045;-62
2022/07/09 04:57:28;;;;;;;22.65;13.82;;;15.30;99.90;;;;;;5028096;28;20390;-62
2022/07/09 04:59:57;;;;;;;;;;;15.30;99.90;;;;;;5028605;28;20071;-64
2022/07/09 05:02:22;;;;;;;25.75;15.50;;;15.30;99.90;;;;;;5027319;28;19960;-63
2022/07/09 05:04:48;;;;;;;;;;;15.20;99.90;;;;;;5028794;28;20513;-63
2022/07/09 05:07:13;;;;;;;18.42;11.93;;;15.20;99.90;;;;;;5028672;28;19920;-63
2022/07/09 05:09:39;;;;;;;;;;;15.20;99.90;;;;;;5027979;28;20041;-62
2022/07/09 05:12:05;;;;;;;20.30;11.30;;;15.20;99.90;;;;;;5028100;28;19995;-63
2022/07/09 05:14:31;;;;;;;17.38;12.05;;;15.20;99.90;;;;;;5026108;28;20041;-62
2022/07/09 05:16:56;;;;;;;;;;;15.20;99.90;;;;;;5027947;28;20056;-62
2022/07/09 05:19:22;;;;;;;18.58;11.70;;;15.30;99.90;;;;;;5028373;28;20304;-63
2022/07/09 05:21:47;;;;;;;;;;;15.30;99.90;;;;;;5027829;28;20094;-63
2022/07/09 05:24:13;;;;;;;18.23;10.40;;;15.30;99.90;;;;;;5018210;28;19939;-63
2022/07/09 05:26:38;;;;;;;;;;;15.20;99.90;;;;;;5018773;28;20433;-63
2022/07/09 05:29:04;;;;;;;17.17;9.52;;;15.20;99.90;;;;;;5026596;28;19917;-63
2022/07/09 05:31:30;;;;;;;18.50;10.65;;;15.20;99.90;;;;;;5027061;28;20579;-63
2022/07/09 05:33:55;;;;;;;;;;;15.20;99.90;;;;;;5028505;28;20124;-63
2022/07/09 05:36:21;;;;;;;14.02;9.07;;;15.30;99.90;;;;;;5037013;28;20397;-63
2022/07/09 05:38:49;;;;;;;14.40;8.43;;;15.30;99.90;;;;;;5031691;28;20046;-63
2022/07/09 05:41:15;;;;;;;13.50;8.73;;;15.40;99.90;;;;;;5027850;28;20087;-63
2022/07/09 05:43:41;;;;;;;;;;;15.40;99.90;;;;;;5027916;28;20489;-63
2022/07/09 05:46:06;;;;;;;13.10;8.90;;;15.40;99.90;;;;;;5027507;28;19924;-63
2022/07/09 05:48:32;;;;;;;;;;;15.40;99.90;;;;;;5027306;28;20121;-63
2022/07/09 05:50:57;;;;;;;15.10;9.43;;;15.40;99.90;;;;;;5026995;28;19917;-63
2022/07/09 05:53:23;;;;;;;;;;;15.40;99.90;;;;;;5027439;28;20033;-63
2022/07/09 05:55:49;;;;;;;18.60;10.68;;;15.30;99.90;;;;;;5022379;28;19924;-62
2022/07/09 05:58:15;;;;;;;;;;;15.30;99.90;;;;;;5027149;28;20040;-63
2022/07/09 06:00:40;;;;;;;16.02;8.23;;;15.30;99.90;;;;;;5026058;28;19917;-66
2022/07/09 06:03:06;;;;;;;;;;;15.40;99.90;;;;;;5027546;28;20049;-63
2022/07/09 06:05:31;;;;;;;11.68;7.88;;;15.50;99.90;;;;;;5031440;28;19939;-64
2022/07/09 06:07:57;;;;;;;;;;;15.50;99.90;;;;;;5037405;28;20119;-63
2022/07/09 06:10:23;;;;;;;14.98;5.85;;;15.60;99.90;;;;;;5046288;28;19920;-63
2022/07/09 06:12:48;;;;;;;;;;;15.80;99.90;;;;;;5030038;28;20159;-62
2022/07/09 06:15:14;;;;;;;7.35;4.60;;;15.90;99.90;;;;;;5025078;28;19917;-64
2022/07/09 06:17:39;;;;;;;;;;;16.10;99.90;;;;;;5026720;28;20512;-63
2022/07/09 06:20:06;;;;;;;10.32;5.63;;;16.30;99.90;;;;;;5025901;28;19924;-63
2022/07/09 06:22:32;;;;;;;9.45;4.88;;;16.50;99.90;;;;;;5025947;28;20073;-62
2022/07/09 06:24:57;;;;;;;;;;;16.50;99.90;;;;;;5025657;28;20108;-63
2022/07/09 06:27:24;;;;;;;8.18;4.30;;;16.70;99.90;;;;;;5026404;28;19932;-62
2022/07/09 06:29:49;;;;;;;8.68;4.13;;;16.80;99.90;;;;;;5024095;28;20448;-63
2022/07/09 06:32:15;;;;;;;;;;;16.90;99.90;;;;;;5026330;28;20041;-64
2022/07/09 06:34:40;;;;;;;5.95;3.95;;;17.00;99.90;;;;;;5026487;28;19916;-63
2022/07/09 06:37:06;;;;;;;;;;;17.20;99.90;;;;;;5034676;28;20809;-62
2022/07/09 06:39:44;;;;;;;18.80;5.05;;;17.20;99.90;;;;;;5025632;28;19921;-64
2022/07/09 06:42:11;;;;;;;7.10;4.78;;;17.20;99.90;;;;;;5026425;28;20033;-63
2022/07/09 06:44:37;;;;;;;7.78;4.22;;;17.40;99.90;;;;;;5026096;28;20041;-63
2022/07/09 06:47:04;;;;;;;15.80;5.78;;;17.50;99.90;;;;;;5026058;28;20072;-67
2022/07/09 06:49:30;;;;;;;6.25;4.20;;;17.50;99.90;;;;;;5025167;28;20495;-68
2022/07/09 06:51:56;;;;;;;;;;;17.70;99.90;;;;;;5025850;28;20162;-67
2022/07/09 06:54:21;;;;;;;10.75;4.15;;;17.60;99.90;;;;;;5025329;28;19956;-66
2022/07/09 06:56:47;;;;;;;7.50;4.60;;;17.60;99.90;;;;;;5025480;28;20416;-68
2022/07/09 06:59:13;;;;;;;6.65;4.15;;;17.50;99.90;;;;;;5025962;28;20091;-67
2022/07/09 07:01:39;;;;;;;7.15;4.22;;;17.40;99.90;;;;;;5025121;28;20553;-64
2022/07/09 07:04:05;;;;;;;;;;;17.20;99.90;;;;;;5027160;28;20043;-65
2022/07/09 07:06:30;;;;;;;7.75;4.57;;;17.00;99.90;;;;;;5033544;28;19924;-64
2022/07/09 07:08:56;;;;;;;;;;;16.90;99.90;;;;;;5026598;28;20052;-62
2022/07/09 07:11:21;;;;;;;11.43;5.63;;;16.80;99.90;;;;;;5026894;28;19920;-64
2022/07/09 07:13:47;;;;;;;;;;;16.60;99.90;;;;;;5026212;28;20664;-64
2022/07/09 07:16:12;;;;;;;10.07;5.18;;;16.70;99.90;;;;;;5024158;28;20342;-65
2022/07/09 07:18:38;;;;;;;;;;;16.70;99.90;;;;;;5026143;28;20561;-64
2022/07/09 07:21:04;;;;;;;8.77;5.32;;;16.80;99.90;;;;;;5019615;28;19924;-65
2022/07/09 07:23:32;;;;;;;;;;;16.90;99.90;;;;;;5026337;28;20065;-65
2022/07/09 07:25:59;;;;;;;9.05;4.28;;;17.00;99.90;;;;;;5025769;28;20590;-65
2022/07/09 07:28:24;;;;;;;8.02;4.45;;;17.10;99.90;;;;;;5023326;28;20424;-64
2022/07/09 07:30:50;;;;;;;;;;;17.00;99.90;;;;;;5030582;28;20033;-65
2022/07/09 07:33:15;;;;;;;7.80;3.60;;;16.80;99.90;;;;;;5031159;28;19956;-67
2022/07/09 07:35:41;;;;;;;;;;;16.90;99.90;;;;;;5028256;28;20076;-67
2022/07/09 07:38:07;;;;;;;5.65;2.60;;;16.90;99.90;;;;;;5028544;28;19928;-67
2022/07/09 07:40:32;;;;;;;5.32;2.67;;;17.00;99.90;;;;;;5029479;28;20322;-66
2022/07/09 07:42:58;;;;;;;6.50;3.80;;;17.10;99.90;;;;;;5029388;28;20037;-67
2022/07/09 07:45:23;;;;;;;6.63;3.33;;;16.90;99.90;;;;;;5029654;28;20037;-66
2022/07/09 07:47:49;;;;;;;;;;;17.00;99.90;;;;;;5028099;28;20051;-67
2022/07/09 07:50:14;;;;;;;8.07;3.05;;;17.00;99.90;;;;;;5029818;28;19971;-66
2022/07/09 07:52:40;;;;;;;5.18;2.95;;;17.10;99.90;;;;;;5029538;28;20045;-65
2022/07/09 07:55:06;;;;;;;;;;;17.00;99.90;;;;;;5028224;28;20533;-66
2022/07/09 07:57:31;;;;;;;6.05;3.17;;;17.00;99.90;;;;;;5030694;28;19921;-68
2022/07/09 07:59:57;;;;;;;;;;;16.80;99.90;;;;;;5029400;28;20501;-65
2022/07/09 08:02:23;;;;;;;4.25;2.63;;;16.80;99.90;;;;;;5035404;28;19923;-63
2022/07/09 08:04:48;;;;;;;5.32;3.05;;;16.80;99.90;;;;;;5035176;28;20381;-66
2022/07/09 08:07:14;;;;;;;6.40;2.17;;;17.00;99.90;;;;;;5028292;28;20057;-66
2022/07/09 08:09:39;;;;;;;5.15;2.60;;;17.40;99.90;;;;;;5028991;28;20052;-66
2022/07/09 08:12:05;;;;;;;6.38;3.05;;;17.70;99.90;;;;;;5028135;28;20091;-67
2022/07/09 08:14:31;;;;;;;5.32;2.50;;;17.90;99.90;;;;;;5044071;28;20041;-66
2022/07/09 08:16:57;;;;;;;;;;;17.90;99.90;;;;;;5044123;28;20048;-67
2022/07/09 08:19:22;;;;;;;4.38;2.55;;;18.10;99.90;;;;;;5028595;28;19920;-66
2022/07/09 08:21:48;;;;;;;;;;;18.00;99.90;;;;;;5029093;28;20041;-66
2022/07/09 08:24:13;;;;;;;4.63;2.80;;;17.90;99.90;;;;;;5043295;28;19924;-67
2022/07/09 08:26:39;;;;;;;;;;;17.70;99.90;;;;;;5029445;28;20090;-66
2022/07/09 08:29:04;;;;;;;4.90;2.50;;;17.70;99.90;;;;;;5028797;28;19928;-66
2022/07/09 08:31:30;;;;;;;7.10;2.90;;;17.70;99.90;;;;;;5028457;28;20038;-66
2022/07/09 08:33:55;;;;;;;3.75;2.95;;;17.80;99.90;;;;;;5028456;28;20049;-66
2022/07/09 08:36:21;;;;;;;5.85;3.47;;;17.90;99.90;;;;;;5028763;28;20053;-65
2022/07/09 08:38:49;;;;;;;;;;;17.80;99.90;;;;;;5037629;28;20045;-66
2022/07/09 08:41:19;;;;;;;4.30;3.40;;;18.00;99.90;;;;;;5028448;28;20472;-66
2022/07/09 08:43:51;;;;;;;6.20;3.92;;;18.20;99.90;;;;;;5025839;28;20045;-65
2022/07/09 08:46:18;;;;;;;6.57;4.28;;;18.60;99.90;;;;;;5023901;28;20052;-66
2022/07/09 08:48:45;;;;;;;6.00;3.55;;;19.00;99.90;;;;;;5024903;28;20041;-66
2022/07/09 08:51:11;;;;;;;4.88;3.10;;;20.30;99.90;;;;;;5028223;28;20045;-66
2022/07/09 08:53:41;;;;;;;9.90;4.20;;;21.50;97.20;;;;;;5027844;28;20049;-66
2022/07/09 08:56:08;;;;;;;9.15;2.80;;;21.10;97.90;;;;;;5027438;28;20052;-66
2022/07/09 08:58:33;;;;;;;10.98;4.15;;;21.10;98.80;;;;;;5026171;28;20041;-65
2022/07/09 09:01:00;;;;;;;5.00;3.83;;;20.90;96.60;;;;;;5027209;28;20042;-66
2022/07/09 09:03:26;;;;;;;5.47;3.25;;;20.30;97.30;;;;;;5028276;28;20038;-65
2022/07/09 09:06:04;;;;;;;;;;;19.70;99.40;;;;;;5027970;28;20055;-65
2022/07/09 09:08:38;;;;;;;8.48;3.42;;;19.30;99.70;;;;;;5020945;28;20296;-66
2022/07/09 09:11:12;;;;;;;4.68;3.35;;;18.80;99.90;;;;;;5027488;28;20045;-66
2022/07/09 09:13:44;;;;;;;5.55;3.42;;;18.80;99.90;;;;;;5027315;28;20049;-65
2022/07/09 09:16:13;;;;;;;5.65;2.90;;;18.90;99.90;;;;;;5023525;28;20122;-66
2022/07/09 09:18:47;;;;;;;6.45;3.38;;;18.90;99.90;;;;;;5024397;28;20041;-65
2022/07/09 09:21:14;;;;;;;5.68;3.30;;;19.00;99.90;;;;;;5019814;28;20046;-65
2022/07/09 09:23:44;;;;;;;9.07;3.88;;;19.10;99.90;;;;;;5015589;28;20717;-64
2022/07/09 09:26:18;;;;;;;11.77;3.80;;;19.20;99.90;;;;;;5021754;28;20046;-65
2022/07/09 09:28:48;;;;;;;8.07;4.15;;;19.20;99.90;;;;;;5029583;28;20048;-65
2022/07/09 09:31:24;;;;;;;4.90;3.08;;;19.00;99.90;;;;;;5039513;28;20057;-65
2022/07/09 09:34:09;;;;;;;6.90;3.38;;;18.90;99.90;;;;;;5048761;28;20037;-64
2022/07/09 09:36:38;;;;;;;7.75;3.38;;;18.90;99.90;;;;;;5047648;28;20107;-64
2022/07/09 09:39:11;;;;;;;5.40;3.20;;;19.00;99.90;;;;;;5047300;28;20106;-65
2022/07/09 09:41:36;;;;;;;4.75;3.22;;;19.00;99.90;;;;;;5047833;28;20036;-65
2022/07/09 09:44:08;;;;;;;;;;;19.00;99.90;;;;;;5048373;28;20504;-65
2022/07/09 09:46:35;;;;;;;5.38;2.88;;;19.00;99.90;;;;;;5044211;28;20356;-64
2022/07/09 09:49:05;;;;;;;3.83;2.65;;;18.80;99.90;;;;;;5029795;28;20060;-64
2022/07/09 09:51:33;;;;;;;4.43;2.53;;;18.80;99.90;;;;;;5042397;28;20767;-64
2022/07/09 09:54:01;;;;;;;4.85;2.78;;;18.70;99.90;;;;;;5047854;28;20120;-65
2022/07/09 09:56:28;;;;;;;5.72;3.05;;;18.70;99.90;;;;;;5046562;28;20048;-65
2022/07/09 09:58:55;;;;;;;4.35;2.72;;;18.60;99.90;;;;;;5042570;28;20041;-64
2022/07/09 10:01:21;;;;;;;4.18;2.10;;;18.50;99.90;;;;;;5057148;28;20046;-65
2022/07/09 10:03:48;;;;;;;4.93;2.13;;;18.40;99.90;;;;;;5050773;28;20076;-64
2022/07/09 10:06:13;;;;;;;6.60;2.58;;;18.50;99.90;;;;;;5048281;28;20053;-62
2022/07/09 10:08:39;;;;;;;;;;;18.50;99.90;;;;;;5047695;28;20090;-65
2022/07/09 10:11:05;;;;;;;4.68;1.60;;;18.50;99.90;;;;;;5047148;28;20396;-65
2022/07/09 10:13:32;;;;;;;3.33;1.77;;;18.50;99.90;;;;;;5046550;28;20040;-65
2022/07/09 10:15:59;;;;;;;2.10;1.35;;;18.50;99.90;;;;;;5046427;28;20033;-65
2022/07/09 10:18:25;;;;;;;2.15;1.45;;;18.60;99.90;;;;;;5046988;28;20119;-65
2022/07/09 10:20:56;;;;;;;3.60;1.50;;;18.60;99.90;;;;;;5045730;28;20039;-65
2022/07/09 10:23:23;;;;;;;2.22;1.20;;;18.60;99.90;;;;;;5046828;28;20041;-65
2022/07/09 10:25:55;;;;;;;2.05;1.30;;;18.60;99.90;;;;;;5038071;28;20037;-65
2022/07/09 10:28:22;;;;;;;2.03;1.13;;;18.50;99.90;;;;;;5046589;28;20511;-66
2022/07/09 10:30:48;;;;;;;2.67;1.08;;;18.50;99.90;;;;;;5047443;28;20041;-64
2022/07/09 10:33:31;;;;;;;2.13;1.27;;;18.50;99.90;;;;;;5046657;28;20048;-64
2022/07/09 10:35:58;;;;;;;1.85;1.00;;;18.40;99.90;;;;;;5046487;28;20412;-64
2022/07/09 10:38:34;;;;;;;2.13;1.00;;;18.30;99.90;;;;;;5046323;28;20041;-64
2022/07/09 10:41:01;;;;;;;2.85;1.00;;;18.30;99.90;;;;;;5048463;28;20044;-64
2022/07/09 10:43:44;;;;;;;2.33;0.70;;;18.30;99.90;;;;;;5051698;28;20109;-64
2022/07/09 10:46:14;;;;;;;3.72;1.25;;;18.20;99.90;;;;;;5055478;28;20048;-64
2022/07/09 10:48:41;;;;;;;1.08;0.85;;;18.20;99.90;;;;;;5056946;28;20380;-64
2022/07/09 10:51:07;;;;;;;1.13;0.80;;;18.10;99.90;;;;;;5051845;28;20526;-64
2022/07/09 10:53:32;;;;;;;;;;;18.10;99.90;;;;;;5061346;28;20076;-65
2022/07/09 10:55:58;;;;;;;3.17;1.20;;;18.10;99.90;;;;;;5055477;28;19924;-64
2022/07/09 10:58:25;;;;;;;1.17;0.80;;;18.10;99.90;;;;;;5053677;28;20047;-65
2022/07/09 11:01:03;;;;;;;3.83;1.08;;;18.20;99.90;;;;;;5048409;28;20067;-66
2022/07/09 11:03:30;;;;;;;1.52;0.93;;;18.30;99.90;;;;;;5051086;28;20045;-66
2022/07/09 11:05:57;;;;;;;1.80;0.85;;;18.30;99.90;;;;;;5051969;28;20059;-64
2022/07/09 11:08:24;;;;;;;4.47;0.85;;;18.30;99.90;;;;;;5038785;28;20040;-65
2022/07/09 11:10:50;;;;;;;1.50;0.80;;;18.40;99.90;;;;;;5058579;28;20041;-65
2022/07/09 11:13:15;;;;;;;;;;;18.40;99.90;;;;;;5043192;28;20119;-64
2022/07/09 11:15:41;;;;;;;2.95;0.90;;;18.40;99.90;;;;;;5057322;28;20379;-65
2022/07/09 11:18:07;;;;;;;;;;;18.40;99.90;;;;;;5041363;28;20458;-67
2022/07/09 11:20:53;;;;;;;1.67;0.80;;;18.40;99.90;;;;;;5045955;28;19920;-67
2022/07/09 11:23:19;;;;;;;2.10;0.77;;;18.40;99.90;;;;;;5036702;28;20048;-65
2022/07/09 11:25:46;;;;;;;;;;;18.30;99.90;;;;;;5047396;28;21094;-66
2022/07/09 11:28:26;;;;;;;0.90;0.70;;;18.30;99.90;;;;;;5060191;28;19975;-65
2022/07/09 11:31:02;;;;;;;0.80;0.63;;;18.30;99.90;;;;;;5065534;28;20036;-63
2022/07/09 11:34:10;;;;;;;1.67;0.85;;;18.30;99.90;;;;;;5066302;28;20056;-67
2022/07/09 11:36:15;;;;;;;1.20;0.68;;;18.40;99.90;;;;;;5047406;28;20045;-64
2022/07/09 11:38:48;;;;;;;1.67;0.90;;;18.40;99.90;;;;;;5045019;28;20033;-66
2022/07/09 11:41:14;;;;;;;1.52;0.90;;;18.50;99.90;;;;;;5046100;28;20557;-65
2022/07/09 11:43:45;;;;;;;;;;;18.60;99.90;;;;;;5045880;28;20124;-63
2022/07/09 11:46:10;;;;;;;1.73;1.17;;;18.50;99.90;;;;;;5046054;28;20020;-66
2022/07/09 11:48:36;;;;;;;;;;;18.60;99.90;;;;;;5042972;28;20128;-65
2022/07/09 11:51:01;;;;;;;1.83;0.75;;;18.70;99.90;;;;;;5042467;28;19913;-65
2022/07/09 11:53:27;;;;;;;;;;;18.70;99.90;;;;;;5045038;28;20029;-65
2022/07/09 11:56:06;;;;;;;4.75;0.95;;;18.80;99.90;;;;;;5042903;28;19924;-65
2022/07/09 11:58:32;;;;;;;2.65;0.98;;;18.90;99.90;;;;;;5056983;28;20036;-65
2022/07/09 12:01:00;;;;;;;;;;;19.10;99.90;;;;;;5066132;28;20040;-65
2022/07/09 12:03:29;;;;;;;2.90;1.00;;;19.20;99.90;;;;;;5047001;28;19947;-65
2022/07/09 12:05:55;;;;;;;1.48;1.00;;;19.40;99.90;;;;;;5060770;28;20049;-65
2022/07/09 12:08:29;;;;;;;;;;;19.40;99.90;;;;;;5045005;28;20049;-65
2022/07/09 12:10:54;;;;;;;6.28;1.25;;;19.50;99.90;;;;;;5065179;28;19923;-66
2022/07/09 12:13:20;;;;;;;;;;;19.60;99.90;;;;;;5056331;28;20033;-66
2022/07/09 12:15:45;;;;;;;6.05;1.60;;;19.70;99.90;;;;;;5052875;28;19916;-64
2022/07/09 12:18:11;;;;;;;;;;;19.80;99.10;;;;;;5052061;28;20415;-64
2022/07/09 12:20:37;;;;;;;1.60;1.20;;;19.90;98.30;;;;;;5051484;28;19982;-65
2022/07/09 12:23:02;;;;;;;2.83;1.00;;;20.10;98.90;;;;;;5058974;28;20086;-64
2022/07/09 12:25:28;;;;;;;2.08;1.27;;;20.30;98.20;;;;;;5053705;28;20571;-65
2022/07/09 12:27:54;;;;;;;2.50;1.40;;;20.50;98.50;;;;;;5053248;28;20033;-64
2022/07/09 12:30:20;;;;;;;2.40;1.30;;;20.30;97.60;;;;;;5048825;28;20044;-65
2022/07/09 12:32:46;;;;;;;3.35;1.38;;;20.30;97.70;;;;;;5051932;28;20045;-64
2022/07/09 12:35:12;;;;;;;8.10;1.48;;;20.40;97.10;;;;;;5057221;28;20040;-65
2022/07/09 12:37:38;;;;;;;1.80;1.10;;;20.30;98.30;;;;;;5047697;28;20047;-65
2022/07/09 12:40:05;;;;;;;1.52;1.10;;;20.20;97.70;;;;;;5049378;28;20190;-65
2022/07/09 12:42:31;;;;;;;1.92;1.33;;;20.30;97.00;;;;;;5049080;28;20102;-65
2022/07/09 12:44:56;;;;;;;;;;;20.30;97.10;;;;;;5057856;28;20516;-65
2022/07/09 12:47:22;;;;;;;1.30;1.00;;;20.30;97.50;;;;;;5059641;28;19924;-65
2022/07/09 12:49:48;;;;;;;1.85;1.00;;;20.50;98.10;;;;;;5063640;28;20545;-65
2022/07/09 12:52:13;;;;;;;2.28;1.40;;;20.60;98.10;;;;;;5060569;28;20043;-66
2022/07/09 12:54:39;;;;;;;3.55;1.30;;;20.50;95.30;;;;;;5059891;28;20048;-64
2022/07/09 12:57:05;;;;;;;3.28;1.80;;;20.60;95.40;;;;;;5043161;28;20037;-65
2022/07/09 12:59:31;;;;;;;2.88;1.50;;;20.70;96.20;;;;;;5033523;28;20041;-65
2022/07/09 13:01:57;;;;;;;7.90;1.85;;;20.70;96.30;;;;;;5032145;28;20033;-65
2022/07/09 13:04:22;;;;;;;5.20;1.85;;;20.70;94.00;;;;;;5039035;28;20049;-66
2022/07/09 13:06:48;;;;;;;2.80;1.38;;;20.60;95.20;;;;;;5047644;28;20049;-65